createdAt,value
2023-12-23T00:02:03.760Z,83.70
2023-12-23T00:04:32.326Z,92.50
2023-12-23T00:07:00.647Z,89.17
2023-12-23T00:09:30.629Z,80.30
2023-12-23T00:11:58.989Z,71.80
2023-12-23T00:14:27.502Z,86.03
2023-12-23T00:16:55.840Z,85.73
2023-12-23T00:19:24.581Z,93.93
2023-12-23T00:21:52.962Z,86.70
2023-12-23T00:24:21.476Z,84.60
2023-12-23T00:26:51.176Z,76.90
2023-12-23T00:29:19.735Z,88.07
2023-12-23T00:31:48.067Z,85.63
2023-12-23T00:34:16.728Z,82.90
2023-12-23T00:36:45.111Z,87.30
2023-12-23T00:39:14.058Z,86.90
2023-12-23T00:41:42.837Z,83.60
2023-12-23T00:44:12.892Z,87.50
2023-12-23T00:46:41.292Z,85.60
2023-12-23T00:49:10.256Z,92.20
2023-12-23T00:51:39.328Z,91.37
2023-12-23T00:54:08.087Z,85.70
2023-12-23T00:56:36.509Z,86.27
2023-12-23T00:59:05.199Z,92.77
2023-12-23T01:01:34.917Z,92.17
2023-12-23T01:04:03.842Z,92.43
2023-12-23T01:06:32.142Z,100.37
2023-12-23T01:09:00.834Z,95.13
2023-12-23T01:11:29.277Z,87.57
2023-12-23T01:13:57.932Z,95.90
2023-12-23T01:16:26.963Z,87.10
2023-12-23T01:18:56.986Z,93.30
2023-12-23T01:21:25.358Z,98.23
2023-12-23T01:23:53.859Z,96.97
2023-12-23T01:26:23.116Z,89.47
2023-12-23T01:28:51.723Z,84.20
2023-12-23T01:31:22.088Z,93.73
2023-12-23T01:33:50.924Z,99.93
2023-12-23T01:36:20.731Z,102.10
2023-12-23T01:38:49.357Z,103.33
2023-12-23T01:41:17.717Z,88.80
2023-12-23T01:43:47.236Z,86.33
2023-12-23T01:46:15.588Z,97.00
2023-12-23T01:48:46.600Z,97.90
2023-12-23T01:51:16.839Z,102.23
2023-12-23T01:53:47.322Z,93.70
2023-12-23T01:56:17.540Z,86.20
2023-12-23T01:58:46.206Z,103.50
2023-12-23T02:01:15.602Z,90.23
2023-12-23T02:03:44.280Z,93.20
2023-12-23T02:06:12.678Z,85.87
2023-12-23T02:08:42.179Z,92.70
2023-12-23T02:11:20.334Z,94.70
2023-12-23T02:14:00.425Z,96.33
2023-12-23T02:16:29.693Z,107.20
2023-12-23T02:18:58.292Z,87.60
2023-12-23T02:21:27.983Z,107.60
2023-12-23T02:23:56.630Z,109.50
2023-12-23T02:26:28.343Z,103.77
2023-12-23T02:28:58.021Z,101.37
2023-12-23T02:31:27.376Z,105.97
2023-12-23T02:33:56.594Z,100.27
2023-12-23T02:36:25.027Z,113.53
2023-12-23T02:38:54.947Z,97.87
2023-12-23T02:41:23.393Z,105.10
2023-12-23T02:43:52.022Z,108.93
2023-12-23T02:46:20.557Z,94.57
2023-12-23T02:48:49.204Z,97.80
2023-12-23T02:51:17.601Z,94.10
2023-12-23T02:53:46.176Z,95.37
2023-12-23T02:56:15.823Z,93.13
2023-12-23T02:58:44.570Z,91.43
2023-12-23T03:01:14.199Z,79.87
2023-12-23T03:03:42.999Z,78.00
2023-12-23T03:06:14.729Z,94.97
2023-12-23T03:08:44.049Z,89.23
2023-12-23T03:11:12.527Z,100.20
2023-12-23T03:13:42.601Z,98.50
2023-12-23T03:16:17.830Z,94.93
2023-12-23T03:18:46.909Z,86.87
2023-12-23T03:21:15.429Z,81.83
2023-12-23T03:23:44.095Z,96.10
2023-12-23T03:26:12.499Z,92.33
2023-12-23T03:28:42.513Z,85.27
2023-12-23T03:31:10.905Z,78.00
2023-12-23T03:33:41.468Z,88.83
2023-12-23T03:36:10.423Z,94.33
2023-12-23T03:38:39.058Z,86.93
2023-12-23T03:41:07.445Z,87.70
2023-12-23T03:43:36.168Z,88.40
2023-12-23T03:46:06.345Z,89.70
2023-12-23T03:48:35.203Z,84.07
2023-12-23T03:51:03.486Z,68.60
2023-12-23T03:53:32.090Z,75.70
2023-12-23T03:56:00.567Z,78.77
2023-12-23T03:58:30.598Z,73.63
2023-12-23T04:00:59.053Z,83.73
2023-12-23T04:03:29.069Z,78.33
2023-12-23T04:05:57.582Z,75.33
2023-12-23T04:08:26.280Z,72.67
2023-12-23T04:10:54.697Z,67.90
2023-12-23T04:13:23.442Z,71.20
2023-12-23T04:15:51.822Z,66.37
2023-12-23T04:18:20.567Z,62.37
2023-12-23T04:20:50.365Z,65.20
2023-12-23T04:23:18.954Z,72.50
2023-12-23T04:25:47.596Z,74.37
2023-12-23T04:28:16.956Z,61.30
2023-12-23T04:30:45.476Z,63.23
2023-12-23T04:33:14.249Z,70.47
2023-12-23T04:35:44.070Z,64.03
2023-12-23T04:38:15.406Z,74.63
2023-12-23T04:40:43.839Z,77.53
2023-12-23T04:43:12.454Z,77.83
2023-12-23T04:45:41.020Z,67.83
2023-12-23T04:48:09.872Z,69.03
2023-12-23T04:50:38.434Z,66.73
2023-12-23T04:53:07.344Z,68.77
2023-12-23T04:55:37.087Z,64.50
2023-12-23T04:58:06.036Z,70.17
2023-12-23T05:00:34.505Z,63.57
2023-12-23T05:03:03.502Z,71.37
2023-12-23T05:05:32.218Z,63.73
2023-12-23T05:08:01.005Z,70.67
2023-12-23T05:10:29.347Z,71.60
2023-12-23T05:12:59.305Z,70.47
2023-12-23T05:15:27.627Z,61.90
2023-12-23T05:17:56.290Z,59.17
2023-12-23T05:20:24.703Z,61.53
2023-12-23T05:22:53.999Z,62.97
2023-12-23T05:25:22.623Z,65.57
2023-12-23T05:27:51.209Z,69.73
2023-12-23T05:30:21.061Z,64.20
2023-12-23T05:32:49.918Z,69.17
2023-12-23T05:35:18.695Z,63.50
2023-12-23T05:37:47.347Z,61.90
2023-12-23T05:40:15.855Z,60.93
2023-12-23T05:42:44.513Z,65.97
2023-12-23T05:45:12.999Z,67.23
2023-12-23T05:47:44.256Z,62.80
2023-12-23T05:50:12.818Z,58.87
2023-12-23T05:52:41.477Z,56.27
2023-12-23T05:55:10.499Z,62.03
2023-12-23T05:57:39.109Z,64.67
2023-12-23T06:00:11.117Z,59.67
2023-12-23T06:02:42.561Z,60.17
2023-12-23T06:05:10.920Z,58.63
2023-12-23T06:07:39.608Z,59.20
2023-12-23T06:10:09.263Z,57.07
2023-12-23T06:12:37.894Z,61.07
2023-12-23T06:15:07.154Z,59.30
2023-12-23T06:17:35.830Z,66.77
2023-12-23T06:20:06.393Z,65.13
2023-12-23T06:22:35.065Z,63.07
2023-12-23T06:25:04.362Z,64.07
2023-12-23T06:27:33.115Z,62.27
2023-12-23T06:30:01.408Z,64.27
2023-12-23T06:32:30.329Z,66.37
2023-12-23T06:34:58.776Z,63.23
2023-12-23T06:37:28.725Z,65.73
2023-12-23T06:39:57.181Z,63.73
2023-12-23T06:42:25.751Z,64.80
2023-12-23T06:44:54.207Z,61.17
2023-12-23T06:47:22.853Z,64.60
2023-12-23T06:49:51.340Z,62.87
2023-12-23T06:52:19.943Z,61.77
2023-12-23T06:54:49.788Z,65.23
2023-12-23T06:57:18.354Z,65.40
2023-12-23T06:59:47.279Z,61.97
2023-12-23T07:02:16.378Z,68.17
2023-12-23T07:04:45.062Z,68.60
2023-12-23T07:07:13.650Z,65.47
2023-12-23T07:09:41.948Z,65.83
2023-12-23T07:12:11.932Z,69.23
2023-12-23T07:14:40.749Z,69.70
2023-12-23T07:17:09.405Z,67.77
2023-12-23T07:19:38.566Z,67.73
2023-12-23T07:22:07.752Z,67.47
2023-12-23T07:24:36.074Z,63.80
2023-12-23T07:27:05.615Z,99.00
2023-12-23T07:29:35.396Z,96.60
2023-12-23T07:32:04.006Z,88.77
2023-12-23T07:34:32.425Z,85.70
2023-12-23T07:37:01.254Z,77.83
2023-12-23T07:39:29.663Z,69.10
2023-12-23T07:41:58.933Z,77.73
2023-12-23T07:44:27.255Z,86.57
2023-12-23T07:46:58.319Z,78.17
2023-12-23T07:49:27.054Z,75.70
2023-12-23T07:51:55.942Z,84.13
2023-12-23T07:54:24.671Z,73.40
2023-12-23T07:56:53.604Z,80.10
2023-12-23T07:59:22.055Z,101.00
2023-12-23T08:01:50.797Z,85.00
2023-12-23T08:04:20.491Z,90.80
2023-12-23T08:06:49.522Z,82.57
2023-12-23T08:09:17.857Z,77.63
2023-12-23T08:11:46.458Z,127.60
2023-12-23T08:28:19.277Z,107.67
2023-12-23T08:30:48.380Z,103.47
2023-12-23T08:33:16.758Z,20.97
2023-12-23T08:35:46.055Z,25.00
2023-12-23T08:38:14.497Z,18.23
2023-12-23T08:40:44.596Z,13.13
2023-12-23T08:43:13.503Z,12.53
2023-12-23T08:45:43.863Z,11.60
2023-12-23T08:48:12.333Z,13.95
2023-12-23T08:50:40.943Z,12.73
2023-12-23T08:53:09.390Z,16.87
2023-12-23T08:55:38.287Z,11.80
2023-12-23T08:58:06.732Z,13.43
2023-12-23T09:00:36.805Z,16.97
2023-12-23T09:03:06.869Z,10.43
2023-12-23T09:05:35.631Z,13.17
2023-12-23T09:08:03.979Z,15.40
2023-12-23T09:10:32.669Z,14.93
2023-12-23T09:13:01.182Z,16.73
2023-12-23T09:15:29.785Z,9.43
2023-12-23T09:17:58.446Z,13.43
2023-12-23T09:20:30.097Z,8.63
2023-12-23T09:22:58.466Z,10.53
2023-12-23T09:25:27.030Z,10.60
2023-12-23T09:27:55.315Z,14.87
2023-12-23T09:30:24.190Z,12.77
2023-12-23T09:32:52.553Z,13.37
2023-12-23T09:35:21.209Z,13.40
2023-12-23T09:37:51.688Z,11.53
2023-12-23T09:40:20.575Z,14.07
2023-12-23T09:42:49.113Z,11.83
2023-12-23T09:45:18.893Z,13.73
2023-12-23T09:47:47.373Z,12.43
2023-12-23T09:50:17.389Z,9.70
2023-12-23T09:52:48.090Z,14.20
2023-12-23T09:55:21.532Z,12.60
2023-12-23T09:57:59.218Z,13.23
2023-12-23T10:00:27.829Z,9.97
2023-12-23T10:02:56.246Z,14.40
2023-12-23T10:05:27.908Z,10.87
2023-12-23T10:07:58.675Z,13.03
2023-12-23T10:10:29.488Z,11.80
2023-12-23T10:12:57.920Z,15.63
2023-12-23T10:15:26.706Z,15.30
2023-12-23T10:17:55.439Z,11.27
2023-12-23T10:20:24.225Z,13.40
2023-12-23T10:22:52.861Z,14.57
2023-12-23T10:25:21.903Z,10.20
2023-12-23T10:27:55.649Z,18.83
2023-12-23T10:30:26.433Z,13.50
2023-12-23T10:32:59.165Z,11.17
2023-12-23T10:35:29.456Z,17.00
2023-12-23T10:38:00.932Z,12.07
2023-12-23T10:40:31.198Z,15.20
2023-12-23T10:43:03.193Z,11.93
2023-12-23T10:45:36.440Z,13.00
2023-12-23T10:48:07.901Z,12.63
2023-12-23T10:50:37.787Z,11.03
2023-12-23T10:53:10.005Z,9.93
2023-12-23T10:55:40.760Z,15.10
2023-12-23T10:58:11.483Z,14.50
2023-12-23T11:00:40.177Z,21.87
2023-12-23T11:03:10.526Z,12.13
2023-12-23T11:05:41.478Z,14.33
2023-12-23T11:08:17.658Z,10.63
2023-12-23T11:10:47.747Z,9.90
2023-12-23T11:13:25.185Z,11.97
2023-12-23T11:15:56.911Z,9.87
2023-12-23T11:18:25.367Z,10.60
2023-12-23T11:20:54.429Z,11.40
2023-12-23T11:23:36.518Z,17.80
2023-12-23T11:26:06.375Z,14.80
2023-12-23T11:28:38.638Z,16.27
2023-12-23T11:31:07.619Z,11.53
2023-12-23T11:33:37.781Z,7.90
2023-12-23T11:36:07.839Z,11.93
2023-12-23T11:38:51.497Z,13.87
2023-12-23T11:41:20.904Z,9.13
2023-12-23T11:43:52.069Z,14.07
2023-12-23T11:46:24.446Z,14.80
2023-12-23T11:48:52.987Z,12.07
2023-12-23T11:51:21.625Z,13.63
2023-12-23T11:53:50.491Z,18.00
2023-12-23T11:56:19.219Z,12.63
2023-12-23T11:58:47.785Z,16.67
2023-12-23T12:01:20.030Z,13.07
2023-12-23T12:03:49.470Z,12.80
2023-12-23T12:06:18.525Z,10.80
2023-12-23T12:08:48.049Z,15.20
2023-12-23T12:11:17.167Z,16.13
2023-12-23T12:13:47.590Z,17.20
2023-12-23T12:16:17.726Z,13.23
2023-12-23T12:18:48.119Z,13.73
2023-12-23T12:21:16.786Z,12.10
2023-12-23T12:23:45.278Z,9.23
2023-12-23T12:26:13.962Z,10.47
2023-12-23T12:28:44.788Z,16.20
2023-12-23T12:31:16.880Z,16.33
2023-12-23T12:33:45.896Z,11.33
2023-12-23T12:36:17.962Z,15.27
2023-12-23T12:38:47.036Z,10.67
2023-12-23T12:41:15.921Z,12.83
2023-12-23T12:43:45.446Z,11.53
2023-12-23T12:46:16.729Z,16.03
2023-12-23T12:48:47.768Z,11.03
2023-12-23T12:51:18.227Z,15.40
2023-12-23T12:53:48.330Z,17.07
2023-12-23T12:56:22.160Z,11.53
2023-12-23T12:58:51.932Z,12.00
2023-12-23T13:01:21.211Z,9.47
2023-12-23T13:03:51.321Z,12.80
2023-12-23T13:06:20.236Z,11.77
2023-12-23T13:08:48.658Z,12.03
2023-12-23T13:11:17.334Z,14.33
2023-12-23T13:13:46.373Z,10.00
2023-12-23T13:16:15.401Z,9.83
2023-12-23T13:18:52.598Z,10.53
2023-12-23T13:21:27.415Z,11.10
2023-12-23T13:23:55.792Z,12.57
2023-12-23T13:26:24.520Z,13.53
2023-12-23T13:28:53.241Z,12.10
2023-12-23T13:31:22.240Z,11.17
2023-12-23T13:33:50.844Z,14.43
2023-12-23T13:36:19.477Z,11.70
2023-12-23T13:38:49.212Z,13.93
2023-12-23T13:41:25.326Z,11.07
2023-12-23T13:43:53.825Z,11.77
2023-12-23T13:46:22.494Z,10.63
2023-12-23T13:48:50.943Z,14.10
2023-12-23T13:51:20.902Z,16.97
2023-12-23T13:53:50.716Z,11.73
2023-12-23T13:56:19.709Z,13.57
2023-12-23T13:58:48.236Z,15.37
2023-12-23T14:01:17.497Z,10.63
2023-12-23T14:03:46.059Z,13.90
2023-12-23T14:06:15.161Z,9.60
2023-12-23T14:08:52.532Z,10.53
2023-12-23T14:11:26.132Z,10.50
2023-12-23T14:13:54.541Z,11.33
2023-12-23T14:16:23.227Z,15.93
2023-12-23T14:18:51.565Z,11.97
2023-12-23T14:21:20.219Z,13.17
2023-12-23T14:23:48.604Z,12.87
2023-12-23T14:26:17.424Z,14.57
2023-12-23T14:28:47.106Z,15.87
2023-12-23T14:31:15.716Z,11.00
2023-12-23T14:33:44.425Z,16.23
2023-12-23T14:36:17.569Z,15.10
2023-12-23T14:38:46.021Z,9.87
2023-12-23T14:41:15.007Z,11.17
2023-12-23T14:43:48.535Z,10.87
2023-12-23T14:46:19.060Z,14.10
2023-12-23T14:48:47.863Z,13.03
2023-12-23T14:51:16.748Z,13.43
2023-12-23T14:53:48.757Z,17.07
2023-12-23T14:56:17.617Z,11.33
2023-12-23T14:58:47.583Z,12.83
2023-12-23T15:01:16.244Z,12.70
2023-12-23T15:03:44.815Z,18.17
2023-12-23T15:06:13.642Z,11.60
2023-12-23T15:08:42.058Z,10.77
2023-12-23T15:11:11.295Z,13.07
2023-12-23T15:13:41.310Z,13.73
2023-12-23T15:16:13.127Z,10.87
2023-12-23T15:18:41.738Z,12.73
2023-12-23T15:21:10.414Z,13.37
2023-12-23T15:23:41.668Z,13.23
2023-12-23T15:26:10.670Z,11.93
2023-12-23T15:28:39.354Z,10.83
2023-12-23T15:31:08.115Z,12.90
2023-12-23T15:33:37.882Z,9.47
2023-12-23T15:36:08.184Z,12.73
2023-12-23T15:38:36.505Z,13.10
2023-12-23T15:41:05.495Z,15.80
2023-12-23T15:43:33.814Z,14.13
2023-12-23T15:46:02.521Z,11.53
2023-12-23T15:48:30.942Z,13.80
2023-12-23T15:51:01.097Z,7.83
2023-12-23T15:53:29.529Z,12.70
2023-12-23T15:55:58.149Z,11.87
2023-12-23T15:58:26.629Z,15.67
2023-12-23T16:00:55.182Z,10.20
2023-12-23T16:03:23.537Z,12.87
2023-12-23T16:05:52.290Z,11.73
2023-12-23T16:08:22.038Z,15.33
2023-12-23T16:10:50.779Z,11.10
2023-12-23T16:13:19.078Z,12.97
2023-12-23T16:15:47.745Z,11.63
2023-12-23T16:18:16.149Z,10.87
2023-12-23T16:20:44.842Z,15.30
2023-12-23T16:23:13.195Z,11.93
2023-12-23T16:25:43.151Z,12.43
2023-12-23T16:28:11.502Z,10.23
2023-12-23T16:30:40.157Z,13.17
2023-12-23T16:33:08.512Z,12.67
2023-12-23T16:35:37.078Z,14.00
2023-12-23T16:38:05.859Z,13.93
2023-12-23T16:40:34.444Z,10.53
2023-12-23T16:43:04.266Z,16.63
2023-12-23T16:45:32.828Z,14.20
2023-12-23T16:48:01.193Z,12.23
2023-12-23T16:50:30.013Z,17.00
2023-12-23T16:52:58.353Z,17.67
2023-12-23T16:55:27.419Z,12.73
2023-12-23T16:57:56.225Z,16.43
2023-12-23T17:00:26.261Z,15.77
2023-12-23T17:02:54.898Z,14.20
2023-12-23T17:05:23.931Z,15.73
2023-12-23T17:07:52.387Z,16.17
2023-12-23T17:10:20.932Z,13.63
2023-12-23T17:12:49.584Z,18.40
2023-12-23T17:15:18.271Z,15.47
2023-12-23T17:17:48.112Z,10.60
2023-12-23T17:20:17.211Z,12.67
2023-12-23T17:22:45.554Z,16.13
2023-12-23T17:25:14.261Z,15.60
2023-12-23T17:27:42.561Z,12.40
2023-12-23T17:30:11.507Z,17.60
2023-12-23T17:32:40.169Z,11.23
2023-12-23T17:35:11.570Z,16.77
2023-12-23T17:37:39.977Z,17.43
2023-12-23T17:40:09.882Z,13.97
2023-12-23T17:42:38.141Z,14.43
2023-12-23T17:45:07.562Z,14.00
2023-12-23T17:47:36.639Z,13.43
2023-12-23T17:50:06.833Z,13.77
2023-12-23T17:52:36.587Z,17.47
2023-12-23T17:55:05.814Z,15.23
2023-12-23T17:57:34.211Z,12.67
2023-12-23T18:00:03.290Z,14.40
2023-12-23T18:02:32.990Z,13.47
2023-12-23T18:05:01.853Z,12.60
2023-12-23T18:07:30.192Z,13.23
2023-12-23T18:10:00.324Z,9.47
2023-12-23T18:12:28.686Z,14.00
2023-12-23T18:14:58.502Z,14.47
2023-12-23T18:17:28.346Z,15.60
2023-12-23T18:19:57.020Z,14.27
2023-12-23T18:22:25.292Z,12.50
2023-12-23T18:24:54.219Z,12.33
2023-12-23T18:27:23.965Z,13.27
2023-12-23T18:29:52.890Z,13.00
2023-12-23T18:32:21.410Z,10.23
2023-12-23T18:34:50.370Z,11.10
2023-12-23T18:37:18.824Z,11.60
2023-12-23T18:39:47.453Z,10.97
2023-12-23T18:42:15.816Z,12.60
2023-12-23T18:44:45.695Z,13.20
2023-12-23T18:47:14.042Z,10.93
2023-12-23T18:49:42.648Z,12.17
2023-12-23T18:52:10.932Z,10.40
2023-12-23T18:54:39.469Z,14.50
2023-12-23T18:57:07.944Z,13.50
2023-12-23T18:59:36.564Z,14.33
2023-12-23T19:02:09.517Z,12.90
2023-12-23T19:04:38.336Z,11.20
2023-12-23T19:07:07.486Z,13.30
2023-12-23T19:09:36.897Z,15.20
2023-12-23T19:12:05.816Z,13.23
2023-12-23T19:14:34.170Z,12.07
2023-12-23T19:17:02.759Z,18.87
2023-12-23T19:19:32.580Z,16.10
2023-12-23T19:22:01.188Z,13.27
2023-12-23T19:24:30.083Z,12.53
2023-12-23T19:27:02.619Z,13.47
2023-12-23T19:29:31.254Z,13.37
2023-12-23T19:31:59.926Z,14.33
2023-12-23T19:34:28.329Z,15.83
2023-12-23T19:36:58.311Z,14.57
2023-12-23T19:39:26.649Z,13.23
2023-12-23T19:41:55.416Z,15.23
2023-12-23T19:44:25.423Z,15.23
2023-12-23T19:46:54.427Z,13.63
2023-12-23T19:49:22.833Z,14.77
2023-12-23T19:51:51.475Z,15.00
2023-12-23T19:54:23.794Z,15.40
2023-12-23T19:56:52.489Z,11.40
2023-12-23T19:59:20.939Z,14.83
2023-12-23T20:01:49.669Z,12.20
2023-12-23T20:04:18.874Z,10.63
2023-12-23T20:06:47.467Z,13.30
2023-12-23T20:09:16.352Z,15.37
2023-12-23T20:11:46.417Z,13.77
2023-12-23T20:14:14.769Z,10.67
2023-12-23T20:16:43.352Z,10.70
2023-12-23T20:19:13.698Z,16.00
2023-12-23T20:21:42.501Z,14.83
2023-12-23T20:24:11.529Z,14.33
2023-12-23T20:26:40.240Z,14.60
2023-12-23T20:29:09.904Z,15.30
2023-12-23T20:31:38.809Z,16.10
2023-12-23T20:34:08.214Z,12.50
2023-12-23T20:36:39.665Z,14.57
2023-12-23T20:39:08.696Z,15.80
2023-12-23T20:41:40.527Z,12.90
2023-12-23T20:44:13.752Z,13.80
2023-12-23T20:46:42.474Z,14.13
2023-12-23T20:49:11.751Z,10.27
2023-12-23T20:51:41.087Z,12.50
2023-12-23T20:54:09.532Z,15.60
2023-12-23T20:56:38.197Z,10.97
2023-12-23T20:59:07.725Z,14.40
2023-12-23T21:01:37.712Z,13.50
2023-12-23T21:04:11.939Z,11.13
2023-12-23T21:06:40.682Z,14.57
2023-12-23T21:09:11.384Z,12.10
2023-12-23T21:11:41.035Z,10.73
2023-12-23T21:14:09.735Z,14.57
2023-12-23T21:16:39.668Z,13.23
2023-12-23T21:19:08.123Z,14.90
2023-12-23T21:21:39.814Z,19.27
2023-12-23T21:24:09.001Z,13.53
2023-12-23T21:26:38.726Z,12.13
2023-12-23T21:29:08.069Z,11.23
2023-12-23T21:31:36.744Z,12.00
2023-12-23T21:34:06.509Z,13.13
2023-12-23T21:36:35.506Z,13.20
2023-12-23T21:39:03.963Z,15.10
2023-12-23T21:41:35.730Z,12.50
2023-12-23T21:44:08.157Z,14.20
2023-12-23T21:46:36.807Z,15.43
2023-12-23T21:49:11.483Z,8.43
2023-12-23T21:51:40.105Z,12.60
2023-12-23T21:54:08.508Z,14.80
2023-12-23T21:56:40.167Z,8.43
2023-12-23T21:59:08.770Z,10.90
2023-12-23T22:01:37.287Z,11.57
2023-12-23T22:04:07.367Z,10.37
2023-12-23T22:06:35.770Z,10.83
2023-12-23T22:09:04.446Z,11.93
2023-12-23T22:11:33.029Z,11.60
2023-12-23T22:14:01.721Z,12.00
2023-12-23T22:16:30.180Z,14.03
2023-12-23T22:18:58.856Z,12.03
2023-12-23T22:21:28.666Z,10.90
2023-12-23T22:23:57.688Z,13.00
2023-12-23T22:26:28.835Z,12.13
2023-12-23T22:28:57.586Z,13.73
2023-12-23T22:31:25.994Z,10.13
2023-12-23T22:33:54.888Z,10.50
2023-12-23T22:36:23.252Z,12.50
2023-12-23T22:38:53.308Z,11.30
2023-12-23T22:41:21.680Z,10.90
2023-12-23T22:43:50.577Z,9.87
2023-12-23T22:46:18.972Z,10.10
2023-12-23T22:48:47.644Z,8.93
2023-12-23T22:51:16.026Z,10.07
2023-12-23T22:53:44.679Z,8.47
2023-12-23T22:56:14.437Z,8.80
2023-12-23T22:58:43.005Z,6.10
2023-12-23T23:01:16.017Z,10.13
2023-12-23T23:03:44.837Z,10.77
2023-12-23T23:06:13.682Z,9.80
2023-12-23T23:08:42.365Z,11.23
2023-12-23T23:11:10.708Z,11.87
2023-12-23T23:13:40.755Z,13.73
2023-12-23T23:16:10.310Z,15.90
2023-12-23T23:18:42.105Z,12.13
2023-12-23T23:21:10.605Z,10.33
2023-12-23T23:23:39.333Z,11.43
2023-12-23T23:26:08.742Z,12.53
2023-12-23T23:28:37.351Z,10.47
2023-12-23T23:31:07.402Z,13.07
2023-12-23T23:33:36.165Z,13.13
2023-12-23T23:36:04.684Z,8.63
2023-12-23T23:38:33.698Z,10.33
2023-12-23T23:41:01.985Z,9.03
2023-12-23T23:43:30.616Z,10.13
2023-12-23T23:45:58.865Z,9.30
2023-12-23T23:48:28.820Z,9.53
2023-12-23T23:50:57.388Z,11.70
2023-12-23T23:53:26.025Z,10.50
2023-12-23T23:55:54.438Z,12.33
2023-12-23T23:58:22.977Z,11.67
